TimeEDT,TemperatureF,Dew PointF,Humidity,Sea Level PressureIn,VisibilityMPH,Wind Direction,Wind SpeedMPH,Gust SpeedMPH,PrecipitationIn,Events,Conditions,WindDirDegrees,DateUTC
12:15 AM,42.8,39.4,88,29.65,7.0,NNW,6.9,-,N/A,Rain,Light Rain,340,2013-11-02 04:15:00
12:35 AM,43.2,39.9,88,29.65,10.0,NNW,6.9,-,N/A,,Overcast,330,2013-11-02 04:35:00
12:54 AM,43.3,40.5,90,29.65,10.0,North,8.1,-,N/A,,Overcast,10,2013-11-02 04:54:00
1:15 AM,43.0,40.3,90,29.65,10.0,NNE,8.1,-,N/A,,Overcast,30,2013-11-02 05:15:00
1:35 AM,42.8,39.7,89,29.66,10.0,NNE,5.8,-,N/A,,Overcast,20,2013-11-02 05:35:00
1:54 AM,42.8,39.6,88,29.67,10.0,NNE,6.9,-,N/A,,Overcast,30,2013-11-02 05:54:00
2:15 AM,42.1,39.2,90,29.67,10.0,NNE,8.1,-,N/A,Rain,Light Rain,30,2013-11-02 06:15:00
2:35 AM,41.7,39.2,91,29.68,7.0,NE,9.2,-,N/A,Rain,Light Rain,40,2013-11-02 06:35:00
2:54 AM,41.2,38.8,91,29.68,7.0,NE,9.2,-,N/A,Rain,Rain,40,2013-11-02 06:54:00
3:15 AM,41.2,38.8,91,29.69,10.0,NE,9.2,-,N/A,Rain,Light Rain,50,2013-11-02 07:15:00
3:35 AM,41.0,38.3,90,29.70,10.0,NE,8.1,-,N/A,,Light Drizzle,50,2013-11-02 07:35:00
3:55 AM,40.6,38.1,91,29.70,7.0,NE,9.2,-,N/A,,Drizzle,50,2013-11-02 07:55:00
4:15 AM,40.5,37.8,90,29.71,7.0,NE,10.4,-,N/A,,Light Drizzle,40,2013-11-02 08:15:00
4:35 AM,40.5,37.6,89,29.71,10.0,NE,8.1,-,N/A,,Light Drizzle,50,2013-11-02 08:35:00
4:55 AM,40.5,37.4,89,29.72,10.0,NE,10.4,16.1,N/A,,Overcast,40,2013-11-02 08:55:00
5:15 AM,40.3,37.0,88,29.72,10.0,NE,8.1,17.3,N/A,,Overcast,50,2013-11-02 09:15:00
5:34 AM,40.3,36.5,86,29.73,10.0,NE,11.5,16.1,N/A,,Overcast,40,2013-11-02 09:34:00
5:55 AM,40.3,36.7,87,29.74,10.0,NE,10.4,18.4,N/A,,Overcast,50,2013-11-02 09:55:00
6:15 AM,40.1,36.0,85,29.75,10.0,NE,12.7,18.4,N/A,,Overcast,40,2013-11-02 10:15:00
6:34 AM,39.6,35.4,85,29.76,10.0,NE,12.7,17.3,N/A,,Overcast,40,2013-11-02 10:34:00
6:55 AM,39.6,35.1,84,29.77,10.0,NNE,10.4,-,N/A,,Overcast,30,2013-11-02 10:55:00
7:14 AM,39.2,34.9,84,29.78,10.0,NE,8.1,16.1,N/A,,Light Drizzle,50,2013-11-02 11:14:00
7:35 AM,39.2,35.2,86,29.79,10.0,ENE,8.1,-,N/A,,Overcast,60,2013-11-02 11:35:00
7:55 AM,39.4,34.9,84,29.79,10.0,NE,12.7,19.6,N/A,Rain,Light Rain,50,2013-11-02 11:55:00
8:14 AM,39.7,34.3,81,29.80,10.0,NNE,9.2,-,N/A,,Overcast,30,2013-11-02 12:14:00
8:35 AM,39.7,34.0,80,29.82,10.0,NNE,9.2,-,N/A,,Overcast,30,2013-11-02 12:35:00
8:55 AM,39.6,33.3,78,29.83,10.0,NNE,8.1,-,N/A,,Overcast,20,2013-11-02 12:55:00
9:14 AM,39.7,33.3,78,29.84,10.0,NNE,8.1,-,N/A,,Overcast,20,2013-11-02 13:14:00
9:35 AM,39.6,33.1,78,29.85,10.0,NNE,8.1,-,N/A,,Overcast,20,2013-11-02 13:35:00
9:55 AM,39.2,33.8,81,29.86,10.0,NNE,8.1,-,N/A,Rain,Light Rain,30,2013-11-02 13:55:00
10:15 AM,38.3,34.3,86,29.87,10.0,NE,12.7,21.9,N/A,Rain,Light Rain,50,2013-11-02 14:15:00
10:35 AM,37.8,33.8,86,29.87,10.0,NNE,9.2,17.3,N/A,Rain,Light Rain,20,2013-11-02 14:35:00
10:54 AM,38.3,32.5,80,29.88,10.0,NNE,12.7,16.1,N/A,,Overcast,20,2013-11-02 14:54:00
11:15 AM,38.5,32.0,78,29.89,10.0,NNE,12.7,16.1,N/A,,Overcast,30,2013-11-02 15:15:00
11:35 AM,38.7,32.0,77,29.90,10.0,NNE,10.4,-,N/A,,Overcast,20,2013-11-02 15:35:00
11:54 AM,38.8,32.0,76,29.91,10.0,NNE,9.2,16.1,N/A,,Overcast,30,2013-11-02 15:54:00
12:15 PM,38.7,31.6,76,29.92,10.0,North,6.9,-,N/A,,Overcast,360,2013-11-02 16:15:00
12:35 PM,38.5,30.7,74,29.92,10.0,North,9.2,-,N/A,,Overcast,10,2013-11-02 16:35:00
12:54 PM,38.3,30.0,72,29.93,10.0,North,6.9,-,N/A,,Overcast,10,2013-11-02 16:54:00
1:15 PM,38.3,30.9,75,29.94,10.0,North,8.1,-,N/A,,Overcast,360,2013-11-02 17:15:00
1:35 PM,37.6,32.9,83,29.94,10.0,North,11.5,-,N/A,,Overcast,350,2013-11-02 17:35:00
1:55 PM,37.4,33.1,84,29.94,7.0,North,8.1,-,N/A,,Overcast,350,2013-11-02 17:55:00
2:15 PM,38.1,32.0,79,29.95,10.0,North,9.2,-,N/A,,Overcast,10,2013-11-02 18:15:00
2:34 PM,37.0,32.5,84,29.95,10.0,NE,6.9,-,N/A,,Overcast,40,2013-11-02 18:34:00
2:55 PM,36.7,32.9,86,29.96,7.0,NNE,4.6,-,N/A,,Light Drizzle,30,2013-11-02 18:55:00
3:14 PM,37.4,30.9,77,29.96,10.0,North,10.4,-,N/A,,Overcast,350,2013-11-02 19:14:00
3:35 PM,38.3,29.1,70,29.97,10.0,North,6.9,-,N/A,,Overcast,350,2013-11-02 19:35:00
3:55 PM,38.5,28.6,68,29.98,10.0,NNW,5.8,-,N/A,,Overcast,340,2013-11-02 19:55:00
4:14 PM,38.7,28.2,66,29.99,10.0,North,8.1,-,N/A,,Overcast,360,2013-11-02 20:14:00
4:35 PM,38.3,29.3,70,30.00,10.0,NNW,5.8,-,N/A,,Overcast,330,2013-11-02 20:35:00
4:55 PM,37.9,30.2,74,30.01,10.0,NNW,6.9,-,N/A,,Overcast,330,2013-11-02 20:55:00
5:14 PM,37.6,29.3,72,30.02,10.0,NNW,10.4,-,N/A,,Overcast,340,2013-11-02 21:14:00
5:35 PM,37.6,28.4,69,30.02,10.0,North,8.1,-,N/A,,Overcast,350,2013-11-02 21:35:00
5:55 PM,37.4,28.4,70,30.03,10.0,North,8.1,-,N/A,,Overcast,350,2013-11-02 21:55:00
6:15 PM,37.8,27.9,67,30.04,10.0,North,5.8,-,N/A,,Overcast,360,2013-11-02 22:15:00
6:35 PM,37.9,28.2,68,30.05,10.0,North,4.6,-,N/A,,Overcast,350,2013-11-02 22:35:00
6:54 PM,38.5,27.5,65,30.05,10.0,North,9.2,-,N/A,,Overcast,360,2013-11-02 22:54:00
7:15 PM,38.8,27.9,65,30.06,10.0,North,5.8,-,N/A,,Overcast,10,2013-11-02 23:15:00
7:35 PM,39.0,27.5,63,30.06,10.0,North,6.9,-,N/A,,Overcast,10,2013-11-02 23:35:00
7:54 PM,39.2,28.4,65,30.07,10.0,NNW,8.1,-,N/A,,Overcast,340,2013-11-02 23:54:00
8:15 PM,39.0,28.2,65,30.08,10.0,North,6.9,-,N/A,,Overcast,360,2013-11-03 00:15:00
8:35 PM,38.8,28.0,65,30.08,10.0,North,6.9,-,N/A,,Overcast,360,2013-11-03 00:35:00
8:54 PM,39.2,28.4,65,30.09,10.0,NNW,6.9,-,N/A,,Overcast,340,2013-11-03 00:54:00
9:15 PM,39.2,28.2,65,30.10,10.0,North,4.6,-,N/A,,Overcast,350,2013-11-03 01:15:00
9:35 PM,38.8,27.7,64,30.10,10.0,North,4.6,-,N/A,,Overcast,10,2013-11-03 01:35:00
9:55 PM,39.4,28.4,65,30.10,10.0,NE,9.2,-,N/A,,Overcast,40,2013-11-03 01:55:00
10:15 PM,38.8,28.8,67,30.11,10.0,NNE,8.1,-,N/A,,Overcast,30,2013-11-03 02:15:00
10:34 PM,38.5,27.9,66,30.12,10.0,ENE,9.2,-,N/A,,Overcast,60,2013-11-03 02:34:00
10:55 PM,38.3,27.0,64,30.13,10.0,NE,8.1,-,N/A,,Overcast,50,2013-11-03 02:55:00
11:15 PM,38.3,27.1,64,30.14,10.0,NE,8.1,-,N/A,,Overcast,50,2013-11-03 03:15:00
11:34 PM,37.9,27.0,65,30.15,10.0,ENE,8.1,-,N/A,,Overcast,60,2013-11-03 03:34:00
11:55 PM,37.4,27.7,68,30.15,10.0,ENE,10.4,-,N/A,,Overcast,70,2013-11-03 03:55:00